Time;durP1;ratioP1;P1;durP2;ratioP2;P2;SDS_P1;SDS_P2;PMS_P1;PMS_P2;Temp;Humidity;BMP_temperature;BMP_pressure;BME280_temperature;BME280_humidity;BME280_pressure;Samples;Min_cycle;Max_cycle;Signal;HPM_P1;HPM_P2
2022/09/02 00:01:01;;;;;;;3.10;1.08;;;16.20;99.90;;;;;;5076747;28;20471;-58
2022/09/02 00:03:29;;;;;;;1.75;0.70;;;16.30;99.90;;;;;;5076567;28;20144;-57
2022/09/02 00:05:55;;;;;;;;;;;16.20;99.90;;;;;;5077141;28;20120;-57
2022/09/02 00:08:21;;;;;;;1.55;0.85;;;16.10;99.90;;;;;;5076702;28;19994;-58
2022/09/02 00:10:46;;;;;;;1.85;0.93;;;16.20;99.90;;;;;;5076659;28;20132;-58
2022/09/02 00:13:15;;;;;;;5.00;0.88;;;16.10;99.90;;;;;;5076980;28;20045;-58
2022/09/02 00:15:42;;;;;;;1.02;0.90;;;16.00;99.90;;;;;;5058605;28;20049;-58
2022/09/02 00:18:11;;;;;;;2.72;1.33;;;16.00;99.90;;;;;;5076521;28;20430;-58
2022/09/02 00:20:38;;;;;;;1.52;0.98;;;15.90;99.90;;;;;;5076294;28;20066;-58
2022/09/02 00:23:04;;;;;;;2.55;0.90;;;15.90;99.90;;;;;;5076512;28;20036;-57
2022/09/02 00:25:31;;;;;;;22.77;1.45;;;15.90;99.90;;;;;;5076418;28;20051;-57
2022/09/02 00:27:56;;;;;;;1.38;0.68;;;15.80;99.90;;;;;;5076173;28;20049;-57
2022/09/02 00:30:22;;;;;;;3.33;1.00;;;15.70;99.90;;;;;;5076612;28;20057;-58
2022/09/02 00:32:48;;;;;;;1.13;0.80;;;15.80;99.90;;;;;;5076198;28;20135;-58
2022/09/02 00:35:14;;;;;;;3.00;1.00;;;15.70;99.90;;;;;;5075985;28;20376;-58
2022/09/02 00:37:39;;;;;;;1.35;0.93;;;15.70;99.90;;;;;;5076292;28;20505;-58
2022/09/02 00:40:06;;;;;;;1.25;0.80;;;15.70;99.90;;;;;;5076379;28;20170;-57
2022/09/02 00:42:33;;;;;;;2.15;1.00;;;15.60;99.90;;;;;;5058056;28;20076;-58
2022/09/02 00:44:58;;;;;;;1.75;1.00;;;15.60;99.90;;;;;;5076112;28;20063;-57
2022/09/02 00:47:24;;;;;;;4.90;1.25;;;15.60;99.90;;;;;;5075084;28;20048;-58
2022/09/02 00:49:53;;;;;;;1.30;0.95;;;15.60;99.90;;;;;;5075987;28;20131;-58
2022/09/02 00:52:32;;;;;;;1.60;1.20;;;15.50;99.90;;;;;;5075987;28;20044;-58
2022/09/02 00:55:00;;;;;;;4.45;1.40;;;15.50;99.90;;;;;;5075904;28;20130;-59
2022/09/02 00:57:30;;;;;;;1.80;1.40;;;15.40;99.90;;;;;;5057854;28;20445;-58
2022/09/02 00:59:56;;;;;;;1.60;1.35;;;15.50;99.90;;;;;;5075749;28;20048;-58
2022/09/02 01:02:24;;;;;;;3.53;1.83;;;15.50;99.90;;;;;;5075746;28;20040;-58
2022/09/02 01:04:50;;;;;;;3.42;1.63;;;15.50;99.90;;;;;;5075700;28;20041;-58
2022/09/02 01:07:16;;;;;;;2.13;1.80;;;15.50;99.90;;;;;;5075763;28;20052;-58
2022/09/02 01:09:42;;;;;;;4.40;1.60;;;15.40;99.90;;;;;;5075610;28;20048;-57
2022/09/02 01:12:08;;;;;;;2.28;1.55;;;15.40;99.90;;;;;;5075445;28;20044;-58
2022/09/02 01:14:34;;;;;;;10.18;1.77;;;15.30;99.90;;;;;;5075369;28;20052;-58
2022/09/02 01:17:01;;;;;;;3.28;1.70;;;15.30;99.90;;;;;;5076035;28;20036;-57
2022/09/02 01:19:50;;;;;;;3.35;1.50;;;15.30;99.90;;;;;;5075399;28;20075;-56
2022/09/02 01:22:18;;;;;;;7.05;1.33;;;15.30;99.90;;;;;;5075332;28;20123;-58
2022/09/02 01:24:44;;;;;;;5.03;1.55;;;15.20;99.90;;;;;;5075308;28;20403;-57
2022/09/02 01:27:14;;;;;;;4.40;1.40;;;15.20;99.90;;;;;;5075126;28;20053;-57
2022/09/02 01:29:40;;;;;;;5.20;1.30;;;15.20;99.90;;;;;;5075205;28;20129;-57
2022/09/02 01:32:06;;;;;;;13.70;2.08;;;15.10;99.90;;;;;;5075200;28;20076;-57
2022/09/02 01:34:31;;;;;;;2.70;1.42;;;15.10;99.90;;;;;;5074813;28;20045;-57
2022/09/02 01:36:57;;;;;;;2.00;1.52;;;15.10;99.90;;;;;;5074962;28;20040;-57
2022/09/02 01:39:23;;;;;;;4.90;1.20;;;15.10;99.90;;;;;;5074988;28;20051;-57
2022/09/02 01:41:48;;;;;;;2.83;1.30;;;15.10;99.90;;;;;;5074976;28;20063;-58
2022/09/02 01:44:15;;;;;;;6.00;1.38;;;15.00;99.90;;;;;;5074873;28;20046;-57
2022/09/02 01:46:41;;;;;;;1.58;1.05;;;15.00;99.90;;;;;;5056885;28;20052;-57
2022/09/02 01:49:06;;;;;;;2.33;1.30;;;15.00;99.90;;;;;;5074856;28;20090;-58
2022/09/02 01:51:32;;;;;;;3.15;1.45;;;15.00;99.90;;;;;;5074577;28;20050;-57
2022/09/02 01:53:58;;;;;;;3.22;1.38;;;14.90;99.90;;;;;;5074559;28;20055;-57
2022/09/02 01:56:23;;;;;;;2.05;1.25;;;14.90;99.90;;;;;;5074968;28;20399;-57
2022/09/02 01:58:49;;;;;;;3.35;1.45;;;14.90;99.90;;;;;;5074666;28;20047;-57
2022/09/02 02:01:14;;;;;;;2.10;1.30;;;14.80;99.90;;;;;;5074605;28;20100;-57
2022/09/02 02:03:40;;;;;;;3.85;1.35;;;14.80;99.90;;;;;;5074488;28;20402;-58
2022/09/02 02:06:12;;;;;;;2.25;1.10;;;14.80;99.90;;;;;;5056326;28;20444;-58
2022/09/02 02:08:38;;;;;;;3.85;1.55;;;14.80;99.90;;;;;;5074464;28;20426;-58
2022/09/02 02:11:05;;;;;;;2.35;1.58;;;14.70;99.90;;;;;;5074881;28;20041;-58
2022/09/02 02:13:31;;;;;;;1.75;1.42;;;14.70;99.90;;;;;;5074186;28;20494;-58
2022/09/02 02:15:58;;;;;;;2.38;1.33;;;14.60;99.90;;;;;;5074346;28;20181;-58
2022/09/02 02:18:23;;;;;;;4.10;1.20;;;14.60;99.90;;;;;;5056591;28;20376;-58
2022/09/02 02:20:49;;;;;;;2.13;1.10;;;14.70;99.90;;;;;;5074295;28;20051;-58
2022/09/02 02:23:15;;;;;;;3.88;1.33;;;14.60;99.90;;;;;;5074145;28;20056;-59
2022/09/02 02:25:40;;;;;;;3.08;1.40;;;14.60;99.90;;;;;;5074221;28;20059;-58
2022/09/02 02:28:06;;;;;;;1.58;1.40;;;14.50;99.90;;;;;;5074072;28;20051;-58
2022/09/02 02:30:32;;;;;;;1.45;1.35;;;14.50;99.90;;;;;;5074121;28;20056;-58
2022/09/02 02:32:58;;;;;;;5.03;1.20;;;14.50;99.90;;;;;;5056383;28;20052;-58
2022/09/02 02:35:24;;;;;;;2.42;1.55;;;14.50;99.90;;;;;;5073585;28;20053;-58
2022/09/02 02:37:51;;;;;;;3.65;1.60;;;14.40;99.90;;;;;;5073974;28;20437;-58
2022/09/02 02:40:19;;;;;;;2.63;1.20;;;14.30;99.90;;;;;;5073997;28;20049;-58
2022/09/02 02:42:46;;;;;;;1.20;1.10;;;14.40;99.90;;;;;;5074139;28;20119;-58
2022/09/02 02:45:12;;;;;;;2.13;1.23;;;14.40;99.90;;;;;;5073978;28;20048;-58
2022/09/02 02:47:42;;;;;;;1.50;1.30;;;14.30;99.90;;;;;;5073985;28;20094;-56
2022/09/02 02:50:13;;;;;;;1.75;1.00;;;14.40;99.90;;;;;;5073900;28;20040;-57
2022/09/02 02:52:39;;;;;;;4.40;1.45;;;14.30;99.90;;;;;;5073834;28;20045;-58
2022/09/02 02:55:07;;;;;;;1.65;1.30;;;14.30;99.90;;;;;;5073961;28;20127;-57
2022/09/02 02:57:33;;;;;;;3.83;1.30;;;14.30;99.90;;;;;;5073594;28;20045;-57
2022/09/02 03:00:11;;;;;;;1.30;1.20;;;14.30;99.90;;;;;;5073817;28;20493;-58
2022/09/02 03:02:37;;;;;;;2.00;1.17;;;14.20;99.90;;;;;;5074673;28;20064;-58
2022/09/02 03:05:04;;;;;;;5.95;1.70;;;14.20;99.90;;;;;;5073699;28;20477;-58
2022/09/02 03:07:30;;;;;;;4.13;1.23;;;14.20;99.90;;;;;;5073397;28;20055;-58
2022/09/02 03:09:55;;;;;;;2.42;1.42;;;14.20;99.90;;;;;;5056240;28;20376;-58
2022/09/02 03:12:22;;;;;;;2.60;1.23;;;14.10;99.90;;;;;;5080052;28;20124;-57
2022/09/02 03:14:48;;;;;;;2.95;1.83;;;14.10;99.90;;;;;;5080210;28;20071;-58
2022/09/02 03:17:14;;;;;;;3.22;1.30;;;14.00;99.90;;;;;;5080330;28;20040;-58
2022/09/02 03:19:40;;;;;;;4.57;1.30;;;14.00;99.90;;;;;;5062536;28;20411;-58
2022/09/02 03:22:06;;;;;;;1.45;1.20;;;14.00;99.90;;;;;;5080231;28;20047;-58
2022/09/02 03:24:31;;;;;;;1.83;1.40;;;14.00;99.90;;;;;;5080252;28;20103;-58
2022/09/02 03:26:57;;;;;;;1.85;1.40;;;14.00;99.90;;;;;;5080001;28;20102;-57
2022/09/02 03:29:23;;;;;;;4.72;1.40;;;14.00;99.90;;;;;;5080173;28;20379;-58
2022/09/02 03:31:48;;;;;;;1.98;1.10;;;14.00;99.90;;;;;;5080127;28;20040;-58
2022/09/02 03:34:14;;;;;;;1.52;0.98;;;13.90;99.90;;;;;;5079815;28;20052;-58
2022/09/02 03:36:42;;;;;;;4.22;1.30;;;13.90;99.90;;;;;;5080108;28;20084;-57
2022/09/02 03:39:09;;;;;;;1.30;0.90;;;13.90;99.90;;;;;;5079983;28;20097;-58
2022/09/02 03:41:36;;;;;;;1.30;1.20;;;13.90;99.90;;;;;;5079821;28;20127;-58
2022/09/02 03:44:02;;;;;;;1.48;1.15;;;13.80;99.90;;;;;;5080082;28;20045;-57
2022/09/02 03:46:28;;;;;;;1.92;1.50;;;13.80;99.90;;;;;;5080054;28;20047;-58
2022/09/02 03:48:54;;;;;;;1.88;1.35;;;13.80;99.90;;;;;;5079968;28;20051;-57
2022/09/02 03:51:23;;;;;;;1.70;1.05;;;13.70;99.90;;;;;;5079948;28;20469;-57
2022/09/02 03:53:49;;;;;;;3.15;1.23;;;13.70;99.90;;;;;;5080029;28;20040;-57
2022/09/02 03:56:16;;;;;;;3.78;1.50;;;13.70;99.90;;;;;;5079909;28;20063;-57
2022/09/02 03:58:43;;;;;;;3.08;1.23;;;13.70;99.90;;;;;;5079931;28;20052;-57
2022/09/02 04:01:14;;;;;;;3.08;1.35;;;13.70;99.90;;;;;;5061788;28;20479;-57
2022/09/02 04:03:39;;;;;;;3.22;1.45;;;13.60;99.90;;;;;;5079888;28;20041;-57
2022/09/02 04:06:10;;;;;;;2.38;1.13;;;13.60;99.90;;;;;;5079827;28;20076;-57
2022/09/02 04:08:36;;;;;;;1.77;1.40;;;13.60;99.90;;;;;;5079824;28;20052;-56
2022/09/02 04:11:07;;;;;;;2.67;1.40;;;13.60;99.90;;;;;;5079721;28;20437;-56
2022/09/02 04:13:33;;;;;;;2.28;1.45;;;13.60;99.90;;;;;;5079748;28;20389;-57
2022/09/02 04:15:58;;;;;;;2.67;1.40;;;13.50;99.90;;;;;;5079622;28;20041;-56
2022/09/02 04:18:24;;;;;;;2.38;1.35;;;13.50;99.90;;;;;;5079725;28;20040;-57
2022/09/02 04:20:50;;;;;;;1.63;1.40;;;13.50;99.90;;;;;;5079720;28;20051;-57
2022/09/02 04:23:15;;;;;;;2.58;1.40;;;13.50;99.90;;;;;;5075570;28;20047;-56
2022/09/02 04:25:42;;;;;;;1.58;1.48;;;13.50;99.90;;;;;;5076458;28;20052;-57
2022/09/02 04:28:09;;;;;;;1.90;1.48;;;13.50;99.90;;;;;;5076223;28;20487;-56
2022/09/02 04:30:37;;;;;;;7.57;1.30;;;13.40;99.90;;;;;;5076196;28;20521;-57
2022/09/02 04:33:03;;;;;;;1.98;1.25;;;13.40;99.90;;;;;;5076109;28;20499;-58
2022/09/02 04:35:29;;;;;;;2.72;1.63;;;13.40;99.90;;;;;;5076032;28;20052;-57
2022/09/02 04:37:54;;;;;;;4.63;1.42;;;13.40;99.90;;;;;;5076152;28;20045;-57
2022/09/02 04:40:20;;;;;;;4.20;1.58;;;13.40;99.90;;;;;;5076188;28;20123;-58
2022/09/02 04:42:46;;;;;;;5.80;1.55;;;13.40;99.90;;;;;;5075895;28;20119;-57
2022/09/02 04:45:11;;;;;;;2.42;1.20;;;13.40;99.90;;;;;;5076168;28;20394;-58
2022/09/02 04:47:37;;;;;;;2.95;1.90;;;13.30;99.90;;;;;;5075707;28;20051;-58
2022/09/02 04:50:03;;;;;;;3.08;1.52;;;13.30;99.90;;;;;;5075530;28;20120;-58
2022/09/02 04:52:29;;;;;;;2.47;1.65;;;13.30;99.90;;;;;;5075064;28;20068;-58
2022/09/02 04:54:55;;;;;;;5.18;1.58;;;13.30;99.90;;;;;;5075815;28;20505;-57
2022/09/02 04:57:21;;;;;;;5.30;1.60;;;13.30;99.90;;;;;;5075881;28;20044;-55
2022/09/02 04:59:47;;;;;;;1.70;1.35;;;13.30;99.90;;;;;;5075849;28;20067;-56
2022/09/02 05:02:12;;;;;;;2.95;1.80;;;13.30;99.90;;;;;;5057906;28;20483;-57
2022/09/02 05:04:38;;;;;;;2.90;1.60;;;13.30;99.90;;;;;;5075782;28;20049;-57
2022/09/02 05:07:04;;;;;;;2.95;1.65;;;13.30;99.90;;;;;;5075719;28;20036;-57
2022/09/02 05:09:31;;;;;;;3.95;1.95;;;13.30;99.90;;;;;;5075643;28;20514;-57
2022/09/02 05:11:56;;;;;;;4.70;1.55;;;13.30;99.90;;;;;;5075538;28;20048;-57
2022/09/02 05:14:24;;;;;;;2.17;1.40;;;13.30;99.90;;;;;;5075187;28;20053;-57
2022/09/02 05:16:53;;;;;;;3.95;1.30;;;13.40;99.90;;;;;;5076099;28;20133;-58
2022/09/02 05:19:22;;;;;;;3.28;1.40;;;13.30;99.90;;;;;;5057652;28;20502;-57
2022/09/02 05:21:49;;;;;;;4.80;1.92;;;13.30;99.90;;;;;;5075450;28;20083;-58
2022/09/02 05:24:15;;;;;;;3.15;1.58;;;13.40;99.90;;;;;;5075303;28;20640;-58
2022/09/02 05:26:43;;;;;;;5.00;1.60;;;13.50;99.90;;;;;;5057628;28;20513;-58
2022/09/02 05:29:10;;;;;;;2.67;1.73;;;13.40;99.90;;;;;;5075282;28;20048;-58
2022/09/02 05:31:40;;;;;;;1.85;1.55;;;13.40;99.90;;;;;;5075185;28;20135;-58
2022/09/02 05:34:07;;;;;;;1.95;1.60;;;13.50;99.90;;;;;;5074319;28;20499;-58
2022/09/02 05:36:33;;;;;;;2.75;2.00;;;13.60;99.90;;;;;;5074931;28;20053;-57
2022/09/02 05:38:59;;;;;;;7.78;1.95;;;13.60;99.90;;;;;;5075017;28;20129;-58
2022/09/02 05:41:26;;;;;;;3.38;1.50;;;13.70;99.90;;;;;;5074917;28;20402;-58
2022/09/02 05:43:55;;;;;;;5.30;1.90;;;13.70;99.90;;;;;;5074850;28;20110;-58
2022/09/02 05:46:23;;;;;;;3.03;1.60;;;13.80;99.90;;;;;;5074818;28;20048;-57
2022/09/02 05:49:05;;;;;;;6.10;2.13;;;13.80;99.90;;;;;;5074691;28;20051;-58
2022/09/02 05:51:33;;;;;;;5.63;2.67;;;13.90;99.90;;;;;;5075225;28;20052;-57
2022/09/02 05:54:00;;;;;;;9.70;1.98;;;13.90;99.90;;;;;;5074406;28;20514;-58
2022/09/02 05:56:26;;;;;;;2.42;1.70;;;14.00;99.90;;;;;;5074750;28;20053;-58
2022/09/02 05:58:54;;;;;;;3.38;1.65;;;14.10;99.90;;;;;;5074528;28;20560;-57
2022/09/02 06:01:20;;;;;;;4.57;1.75;;;14.10;99.90;;;;;;5074985;28;20036;-58
2022/09/02 06:03:46;;;;;;;2.10;1.45;;;14.20;99.90;;;;;;5074768;28;20628;-57
2022/09/02 06:06:11;;;;;;;5.28;1.85;;;14.30;99.90;;;;;;5074426;28;20056;-57
2022/09/02 06:08:38;;;;;;;3.20;1.50;;;14.30;99.90;;;;;;5074556;28;20080;-58
2022/09/02 06:11:07;;;;;;;2.10;1.60;;;14.40;99.90;;;;;;5074396;28;20128;-58
2022/09/02 06:13:36;;;;;;;3.88;1.55;;;14.50;99.90;;;;;;5074454;28;20052;-59
2022/09/02 06:16:02;;;;;;;3.95;1.52;;;14.50;99.90;;;;;;5074344;28;20098;-57
2022/09/02 06:18:28;;;;;;;2.55;1.65;;;14.60;99.90;;;;;;5074218;28;20048;-57
2022/09/02 06:20:54;;;;;;;1.92;1.70;;;14.70;99.90;;;;;;5074209;28;20093;-56
2022/09/02 06:23:20;;;;;;;2.53;1.45;;;14.80;99.90;;;;;;5074202;28;20044;-57
2022/09/02 06:25:47;;;;;;;2.72;1.35;;;14.90;99.90;;;;;;5056086;28;20048;-56
2022/09/02 06:28:13;;;;;;;5.55;1.95;;;15.00;99.90;;;;;;5074178;28;20504;-57
2022/09/02 06:30:44;;;;;;;6.68;2.00;;;15.10;99.90;;;;;;5073984;28;20380;-58
2022/09/02 06:33:10;;;;;;;4.13;1.60;;;15.10;99.90;;;;;;5073741;28;20048;-56
2022/09/02 06:35:43;;;;;;;2.40;1.70;;;15.30;99.90;;;;;;5073679;28;20044;-57
2022/09/02 06:38:12;;;;;;;2.38;1.40;;;15.50;99.90;;;;;;5056569;28;20044;-57
2022/09/02 06:40:49;;;;;;;4.55;1.40;;;15.60;99.90;;;;;;5066166;28;20048;-56
2022/09/02 06:43:14;;;;;;;5.22;1.65;;;15.80;99.90;;;;;;5074001;28;20036;-57
2022/09/02 06:45:41;;;;;;;5.50;1.77;;;16.00;99.90;;;;;;5073145;28;20513;-56
2022/09/02 06:48:07;;;;;;;5.40;1.90;;;16.40;99.90;;;;;;5073854;28;20075;-57
2022/09/02 06:50:37;;;;;;;2.65;1.77;;;16.60;99.90;;;;;;5074223;28;20040;-58
2022/09/02 06:53:05;;;;;;;5.38;1.48;;;16.80;99.90;;;;;;5074036;28;20044;-57
2022/09/02 06:55:34;;;;;;;4.78;1.70;;;16.90;99.90;;;;;;5073773;28;20044;-58
2022/09/02 06:58:00;;;;;;;2.63;1.70;;;17.20;99.90;;;;;;5073837;28;20060;-56
2022/09/02 07:00:25;;;;;;;3.78;1.30;;;17.30;99.90;;;;;;5073643;28;20037;-56
2022/09/02 07:05:08;;;;;;;2.40;1.60;;;17.40;99.90;;;;;;5073650;28;20395;-57
2022/09/02 07:05:36;;;;;;;1.88;1.42;;;17.70;99.90;;;;;;5073325;28;20106;-58
2022/09/02 07:08:02;;;;;;;5.03;1.40;;;17.90;99.90;;;;;;5074083;28;20055;-57
2022/09/02 07:10:28;;;;;;;2.03;1.58;;;18.00;99.90;;;;;;5073619;28;20041;-57
2022/09/02 07:12:53;;;;;;;4.40;2.08;;;18.30;99.90;;;;;;5073583;28;20052;-58
2022/09/02 07:15:19;;;;;;;9.18;1.67;;;18.40;99.90;;;;;;5073497;28;20055;-56
2022/09/02 07:17:45;;;;;;;4.45;1.30;;;18.70;99.90;;;;;;5073638;28;20059;-58
2022/09/02 07:20:11;;;;;;;5.20;1.83;;;18.90;99.90;;;;;;5073419;28;20036;-58
2022/09/02 07:22:38;;;;;;;2.85;1.50;;;19.00;99.90;;;;;;5073649;28;20128;-56
2022/09/02 07:25:04;;;;;;;4.30;1.60;;;19.10;99.90;;;;;;5073419;28;20055;-57
2022/09/02 07:27:30;;;;;;;4.72;1.55;;;19.20;99.90;;;;;;5073468;28;20372;-57
2022/09/02 07:29:56;;;;;;;3.45;1.48;;;19.40;99.90;;;;;;5073290;28;20051;-57
2022/09/02 07:32:22;;;;;;;4.30;1.50;;;19.60;99.90;;;;;;5073524;28;20040;-57
2022/09/02 07:34:47;;;;;;;3.35;1.60;;;20.00;99.90;;;;;;5073040;28;20476;-57
2022/09/02 07:37:13;;;;;;;3.55;1.90;;;20.40;99.90;;;;;;5066568;28;20037;-56
2022/09/02 07:39:39;;;;;;;2.38;1.30;;;20.30;99.90;;;;;;5073392;28;20048;-56
2022/09/02 07:42:05;;;;;;;3.53;1.10;;;21.40;99.90;;;;;;5073376;28;20044;-58
2022/09/02 07:44:31;;;;;;;4.63;2.10;;;22.20;99.50;;;;;;5073163;28;20110;-58
2022/09/02 07:46:57;;;;;;;4.97;1.38;;;22.70;97.80;;;;;;5073335;28;20044;-57
2022/09/02 07:49:23;;;;;;;4.97;1.30;;;23.30;97.60;;;;;;5073266;28;20048;-57
2022/09/02 07:51:52;;;;;;;5.18;1.50;;;23.60;97.20;;;;;;5073345;28;20040;-57
2022/09/02 07:54:20;;;;;;;3.30;1.30;;;23.80;96.50;;;;;;5073120;28;20132;-57
2022/09/02 07:56:48;;;;;;;3.03;1.02;;;24.30;95.90;;;;;;5073883;28;20563;-58
2022/09/02 07:59:14;;;;;;;2.90;1.10;;;24.30;95.40;;;;;;5076765;28;20399;-56
2022/09/02 08:01:42;;;;;;;3.15;0.95;;;24.30;95.60;;;;;;5076955;28;20055;-56
2022/09/02 08:04:09;;;;;;;2.35;1.05;;;25.40;95.10;;;;;;5076932;28;20040;-57
2022/09/02 08:06:36;;;;;;;1.75;1.30;;;25.80;94.90;;;;;;5076882;28;20044;-56
2022/09/02 08:09:10;;;;;;;1.73;1.10;;;26.10;94.10;;;;;;5076741;28;20045;-57
2022/09/02 08:11:41;;;;;;;2.67;1.00;;;26.40;94.20;;;;;;5076729;28;20053;-57
2022/09/02 08:14:08;;;;;;;2.65;0.95;;;26.80;93.90;;;;;;5076389;28;20486;-57
2022/09/02 08:16:34;;;;;;;3.22;1.33;;;26.90;93.70;;;;;;5076748;28;20048;-57
2022/09/02 08:19:00;;;;;;;2.13;1.30;;;27.10;93.20;;;;;;5076595;28;20462;-57
2022/09/02 08:21:26;;;;;;;1.48;0.90;;;26.50;93.10;;;;;;5076583;28;20041;-57
2022/09/02 08:23:51;;;;;;;2.75;0.90;;;26.70;93.10;;;;;;5076732;28;20131;-56
2022/09/02 08:26:17;;;;;;;6.25;1.00;;;27.30;93.20;;;;;;5058601;28;20067;-56
2022/09/02 08:28:43;;;;;;;6.50;1.10;;;27.60;93.00;;;;;;5076425;28;20048;-57
2022/09/02 08:31:09;;;;;;;4.00;1.10;;;27.50;92.20;;;;;;5076467;28;20059;-57
2022/09/02 08:33:35;;;;;;;4.40;1.10;;;26.90;92.10;;;;;;5076355;28;20048;-58
2022/09/02 08:36:10;;;;;;;4.13;1.10;;;27.20;92.20;;;;;;5076066;28;20541;-57
2022/09/02 08:38:36;;;;;;;1.55;0.90;;;27.60;91.40;;;;;;5076565;28;20048;-58
2022/09/02 08:41:10;;;;;;;3.22;1.00;;;27.10;92.50;;;;;;5076179;28;20055;-58
2022/09/02 08:43:40;;;;;;;3.10;1.10;;;27.70;92.60;;;;;;5076231;28;20394;-58
2022/09/02 08:46:09;;;;;;;2.90;1.20;;;27.90;91.80;;;;;;5075995;28;20121;-57
2022/09/02 08:48:51;;;;;;;5.05;1.27;;;28.00;91.50;;;;;;5076049;28;20544;-57
2022/09/02 08:51:30;;;;;;;6.75;1.23;;;28.00;92.40;;;;;;5075955;28;20083;-57
2022/09/02 08:54:03;;;;;;;3.05;0.95;;;28.40;91.40;;;;;;5057962;28;20560;-58
2022/09/02 08:56:30;;;;;;;3.95;1.25;;;28.80;91.10;;;;;;5075862;28;20491;-57
2022/09/02 08:58:56;;;;;;;6.78;1.30;;;29.50;91.40;;;;;;5075940;28;20040;-57
2022/09/02 09:01:34;;;;;;;2.25;1.10;;;29.50;90.20;;;;;;5075795;28;20497;-57
2022/09/02 09:04:08;;;;;;;4.43;1.35;;;29.10;90.80;;;;;;5075700;28;20048;-58
2022/09/02 09:06:46;;;;;;;4.50;1.05;;;28.80;90.10;;;;;;5075580;28;20044;-57
2022/09/02 09:09:38;;;;;;;3.05;1.30;;;28.60;90.40;;;;;;5075022;28;20040;-58
2022/09/02 09:12:31;;;;;;;2.25;1.08;;;28.90;88.90;;;;;;5075661;28;20462;-57
2022/09/02 09:15:16;;;;;;;2.30;1.30;;;28.20;90.20;;;;;;5057247;28;20080;-58
2022/09/02 09:17:47;;;;;;;4.53;1.23;;;28.10;90.70;;;;;;5057589;28;20130;-58
2022/09/02 09:20:23;;;;;;;4.15;1.27;;;27.30;90.50;;;;;;5075268;28;20487;-58
2022/09/02 09:22:50;;;;;;;5.30;1.67;;;27.50;90.50;;;;;;5057373;28;20040;-58
2022/09/02 09:25:16;;;;;;;6.82;1.50;;;27.20;90.80;;;;;;5075214;28;20483;-58
2022/09/02 09:27:46;;;;;;;7.22;1.23;;;27.70;90.90;;;;;;5057308;28;20044;-57
2022/09/02 09:30:13;;;;;;;6.70;1.40;;;28.30;91.20;;;;;;5075256;28;20098;-57
2022/09/02 09:32:48;;;;;;;3.92;1.25;;;29.10;90.50;;;;;;5075723;28;20049;-57
2022/09/02 09:35:16;;;;;;;7.03;1.00;;;28.80;89.10;;;;;;5062461;28;20049;-56
2022/09/02 09:37:47;;;;;;;3.80;1.20;;;28.60;89.30;;;;;;5054782;28;20110;-57
2022/09/02 09:40:21;;;;;;;6.57;1.30;;;28.50;89.10;;;;;;5055188;28;20048;-58
2022/09/02 09:43:04;;;;;;;2.83;1.30;;;28.50;87.70;;;;;;5055085;28;20048;-57
2022/09/02 09:45:34;;;;;;;3.15;1.00;;;28.10;89.40;;;;;;5055568;28;20464;-56
2022/09/02 09:48:22;;;;;;;5.05;1.10;;;28.10;89.80;;;;;;5055000;28;20041;-57
2022/09/02 09:50:54;;;;;;;5.97;1.30;;;27.70;90.30;;;;;;5054710;28;20048;-56
2022/09/02 09:53:21;;;;;;;2.25;1.10;;;27.80;90.20;;;;;;5054869;28;20067;-57
2022/09/02 09:56:05;;;;;;;5.65;1.40;;;28.00;90.40;;;;;;5054489;28;20096;-57
2022/09/02 09:58:38;;;;;;;4.07;1.05;;;27.70;90.30;;;;;;5054760;28;20049;-57
2022/09/02 10:01:11;;;;;;;5.15;1.15;;;27.40;88.80;;;;;;5054503;28;20048;-57
2022/09/02 10:03:41;;;;;;;5.38;1.10;;;27.50;88.00;;;;;;5054991;28;20371;-56
2022/09/02 10:06:22;;;;;;;4.65;1.13;;;27.60;89.00;;;;;;5054340;28;20606;-57
2022/09/02 10:09:15;;;;;;;3.13;0.98;;;27.50;90.00;;;;;;5054530;28;20041;-56
2022/09/02 10:12:01;;;;;;;4.13;1.35;;;27.70;89.10;;;;;;4973590;28;20047;-58
2022/09/02 10:14:52;;;;;;;7.05;1.15;;;27.40;88.80;;;;;;4973470;28;20540;-57
2022/09/02 10:17:29;;;;;;;10.73;1.23;;;27.70;88.60;;;;;;4973411;28;20047;-57
2022/09/02 10:20:15;;;;;;;6.40;1.10;;;27.60;88.80;;;;;;4972738;28;20047;-58
2022/09/02 10:22:49;;;;;;;3.40;0.93;;;27.80;89.80;;;;;;4973513;28;20050;-57
2022/09/02 10:25:20;;;;;;;1.75;0.85;;;28.40;88.80;;;;;;4973234;28;20050;-57
2022/09/02 10:28:16;;;;;;;4.20;0.88;;;28.00;88.60;;;;;;4973364;28;20054;-57
2022/09/02 10:31:02;;;;;;;4.05;1.08;;;28.10;87.30;;;;;;4973401;28;20058;-57
2022/09/02 10:33:56;;;;;;;2.15;0.90;;;28.30;87.50;;;;;;4973145;28;20055;-57
2022/09/02 10:36:35;;;;;;;2.40;0.90;;;27.90;87.90;;;;;;4969244;28;20054;-57
2022/09/02 10:39:38;;;;;;;5.32;0.90;;;27.90;87.60;;;;;;4973359;28;20065;-58
2022/09/02 10:42:18;;;;;;;5.78;1.13;;;28.30;86.80;;;;;;4972988;28;20058;-57
2022/09/02 10:44:44;;;;;;;3.92;1.00;;;28.20;87.80;;;;;;4972959;28;20054;-57
2022/09/02 10:47:19;;;;;;;2.45;1.00;;;28.70;88.00;;;;;;4973202;28;20422;-58
2022/09/02 10:50:07;;;;;;;2.78;1.00;;;29.30;87.40;;;;;;5045714;28;20128;-58
2022/09/02 10:52:58;;;;;;;7.00;1.20;;;29.10;85.80;;;;;;5053681;28;20041;-57
2022/09/02 10:55:41;;;;;;;1.92;0.80;;;28.60;85.70;;;;;;5053725;28;20049;-58
2022/09/02 10:58:26;;;;;;;4.85;1.38;;;29.00;86.00;;;;;;5053400;28;20472;-58
2022/09/02 11:00:55;;;;;;;2.88;0.80;;;28.80;86.40;;;;;;5053658;28;20395;-58
2022/09/02 11:03:32;;;;;;;4.82;1.02;;;28.70;86.10;;;;;;5044691;28;20048;-58
2022/09/02 11:06:08;;;;;;;3.72;0.73;;;28.80;86.90;;;;;;5051636;28;20041;-58
2022/09/02 11:08:51;;;;;;;2.53;0.80;;;29.00;87.00;;;;;;5053411;28;20523;-58
2022/09/02 11:11:37;;;;;;;7.03;1.23;;;29.10;86.20;;;;;;5049671;28;20049;-57
2022/09/02 11:14:15;;;;;;;4.45;0.90;;;29.30;84.80;;;;;;5051352;28;20049;-58
2022/09/02 11:16:50;;;;;;;2.65;1.08;;;29.30;85.30;;;;;;5050973;28;20514;-58
2022/09/02 11:19:16;;;;;;;6.20;0.90;;;29.10;84.90;;;;;;5050330;28;20037;-59
2022/09/02 11:21:48;;;;;;;3.03;0.90;;;29.40;84.60;;;;;;5053840;28;20120;-61
2022/09/02 11:24:20;;;;;;;2.72;0.88;;;29.70;85.10;;;;;;5053548;28;20045;-58
2022/09/02 11:27:14;;;;;;;3.20;1.20;;;29.70;85.20;;;;;;5034968;28;20049;-58
2022/09/02 11:29:55;;;;;;;3.60;1.30;;;29.90;84.10;;;;;;5053504;28;20045;-57
2022/09/02 11:32:33;;;;;;;2.35;1.00;;;30.20;83.70;;;;;;5055481;28;20103;-57
2022/09/02 11:35:05;;;;;;;3.03;0.70;;;29.50;84.30;;;;;;5076899;28;20067;-57
2022/09/02 11:37:56;;;;;;;5.15;0.90;;;29.60;84.50;;;;;;5077389;28;20044;-57
2022/09/02 11:40:51;;;;;;;4.95;1.55;;;30.40;84.20;;;;;;5077611;28;20124;-57
2022/09/02 11:43:46;;;;;;;2.83;1.27;;;30.00;83.60;;;;;;5077491;28;20134;-57
2022/09/02 11:46:49;;;;;;;5.57;1.70;;;30.50;82.40;;;;;;5077114;28;20040;-58
2022/09/02 11:49:34;;;;;;;2.85;1.05;;;30.00;83.80;;;;;;5077211;28;20132;-58
2022/09/02 11:52:17;;;;;;;8.48;1.23;;;30.40;83.50;;;;;;5076760;28;20045;-57
2022/09/02 11:54:47;;;;;;;6.70;0.93;;;30.00;82.30;;;;;;5076988;28;20048;-58
2022/09/02 11:57:19;;;;;;;5.57;0.95;;;29.90;82.40;;;;;;5077255;28;20486;-57
2022/09/02 11:59:50;;;;;;;3.80;1.00;;;30.40;83.30;;;;;;5077119;28;20048;-58
2022/09/02 12:02:37;;;;;;;4.53;0.70;;;31.30;83.90;;;;;;5059165;28;20486;-57
2022/09/02 12:05:34;;;;;;;3.63;0.80;;;31.40;83.50;;;;;;5076936;28;20127;-57
2022/09/02 12:08:05;;;;;;;5.60;1.42;;;30.90;80.90;;;;;;5076743;28;20048;-57
2022/09/02 12:10:44;;;;;;;2.60;0.90;;;30.60;82.50;;;;;;5076749;28;20044;-57
2022/09/02 12:13:40;;;;;;;2.95;1.00;;;30.80;81.20;;;;;;5077235;28;20052;-58
2022/09/02 12:16:14;;;;;;;3.65;0.90;;;30.30;81.00;;;;;;5059972;28;20375;-58
2022/09/02 12:18:43;;;;;;;5.38;1.15;;;30.40;83.50;;;;;;5076805;28;20057;-57
2022/09/02 12:21:13;;;;;;;4.50;1.10;;;30.60;83.10;;;;;;5076608;28;20155;-58
2022/09/02 12:23:51;;;;;;;2.88;1.08;;;30.40;82.30;;;;;;5076372;28;20547;-58
2022/09/02 12:26:24;;;;;;;1.40;0.90;;;30.00;82.90;;;;;;5076297;28;20061;-58
2022/09/02 12:28:52;;;;;;;4.05;1.13;;;30.10;83.30;;;;;;5076654;28;20048;-57
2022/09/02 12:31:44;;;;;;;5.32;0.90;;;30.60;81.70;;;;;;5058384;28;20053;-57
2022/09/02 12:34:24;;;;;;;1.23;0.90;;;29.90;81.80;;;;;;5076516;28;20060;-57
2022/09/02 12:36:57;;;;;;;2.92;1.00;;;30.00;81.70;;;;;;5076251;28;20483;-57
2022/09/02 12:39:23;;;;;;;2.63;1.00;;;30.10;82.50;;;;;;5076188;28;20041;-57
2022/09/02 12:42:21;;;;;;;4.65;0.73;;;30.30;82.30;;;;;;5076065;28;20376;-57
2022/09/02 12:45:22;;;;;;;4.32;0.70;;;31.10;82.40;;;;;;4993738;28;20054;-57
2022/09/02 12:48:11;;;;;;;3.75;0.77;;;30.90;78.90;;;;;;4994663;28;20513;-57
2022/09/02 12:50:43;;;;;;;3.80;0.70;;;31.10;79.30;;;;;;4994789;28;20054;-58
2022/09/02 12:53:31;;;;;;;5.88;1.23;;;31.10;79.00;;;;;;4994471;28;20137;-58
2022/09/02 12:56:03;;;;;;;2.00;0.70;;;31.00;78.20;;;;;;4994523;28;20393;-58
2022/09/02 12:58:40;;;;;;;2.45;0.70;;;31.10;78.70;;;;;;4994553;28;20212;-58
2022/09/02 13:01:25;;;;;;;6.85;1.63;;;30.80;79.50;;;;;;4994402;28;20054;-58
2022/09/02 13:04:09;;;;;;;1.88;0.90;;;30.90;80.20;;;;;;4978193;28;20043;-58
2022/09/02 13:07:12;;;;;;;5.18;0.90;;;30.40;79.10;;;;;;4977956;28;20046;-58